Accord, New York
Current Conditions -  °F | °C
As of 2:54 AM on Monday 24 Nov 2014 (Local Time) from KMGJ Reporting Station
Moderate Rain Moderate Rain  
Wind Chill: 36°   Ceiling: 700
Heat Index: 41°   Visibility: 3mi
Dew Point: 39°   Wind: 8mph
Humidity: 93%   Direction: 30°NNE
Pressure: 29.82"   Gusts: NA
Location:  41.79°N, 74.23°W
Report Text: KMGJ 240754Z AUTO 03007KT 3SM RA BR OVC007 05/04 A2982 RMK AO2 CIG 004V011 PRESFR SLP097 P0011 T00500039 TSNO
Loading
Personal Weather Stations






























Interactive Weather Map New forecast layout! Learn more

10-Day Weather Forecast

Advertisements
Track Severe Weather on mobile